Terminal Aerodrome Forecast
Issued by NWS

Home | Current Version | Previous Version | Text Only | Print | Product List | Glossary On
Versions: 1 2 3 4 5 6 7 8 9 10 11 12 13 14 15 16 17 18 19 20 21 22 23 24 25 26 27 28 29 30 31 32 33 34
000
FTUS41 KBOX 210547 RRA
TAFFMH
TAF
KFMH 210547Z 2106/2206 13015G24KT 2SM BR OVC003 WS020/18045KT
     FM210800 16013KT 3SM BR OVC001
     FM211100 18012KT 3/4SM BR OVC001
     FM211300 18011KT 2SM BR BKN008
     FM211600 20011KT P6SM BKN250
     FM212000 24010KT P6SM SCT250
     FM220000 26007KT P6SM SCT045=

USA.gov is the U.S. government's official web portal to all federal, state and local government web resources and services.